Alley Springs, Missouri
Current Conditions -  °F | °C
As of 6:53 AM on Friday 19 Dec 2014 (Local Time) from KUNO Reporting Station
Haze Haze  
Wind Chill: -1°   Ceiling: 200
Heat Index:   Visibility: 0.75mi
Dew Point:   Wind: 5mph
Humidity: 96%   Direction: 110°ESE
Pressure: 30.24"   Gusts: NA
Location:  37.1833°N, 91.4819°W
Report Text: KUNO 191253Z AUTO 11004KT 3/4SM BR VV002 01/01 A3024 RMK AO2 SLP249 T00110006
Loading
Personal Weather Stations






























Interactive Weather Map New forecast layout! Learn more

10-Day Weather Forecast

Advertisements
Track Severe Weather on mobile